Latest Weather Observations for Newcastle Nobbys

IDN60801

Issued at 5:43 pm EST Saturday 18 September 2021 (issued every 10 minutes, with the page automatically refreshed every 10 minutes)

About weather observations | Map of weather stations | Latest weather observations for NSW | Other Formats
Station Details ID: 061055 Name: NEWCASTLE NOBBYS SIGNAL STATION AWS Lat: -32.92 Lon: 151.80 Height: 33.0 m
Data from the previous 72 hours. | See also: Recent months at Newcastle Nobbys
Date/Time
EST
Temp
°C
App
Temp
°C
Dew
Point
°C
Rel
Hum
%
Delta-T
°C
Wind Press
QNH
hPa
Press
MSL
hPa
Rain since
9am
mm
Dir  Spd
km/h
Gust
km/h
Spd
kts
Gust
kts
18/05:30pm 21.6 16.1 13.5 60 4.7 WNW 35 46 19 25 - - 0.0
18/05:17pm 22.0 17.0 13.4 58 5.0 WNW 32 54 17 29 - - 0.0
18/05:00pm 22.5 16.4 13.0 55 5.5 WNW 37 50 20 27 - - 0.0
18/04:30pm 23.4 15.9 12.1 49 6.4 WNW 43 65 23 35 - - 0.0
18/04:00pm 24.0 18.3 11.7 46 7.0 WNW 33 52 18 28 - - 0.0
18/03:30pm 24.3 16.4 11.3 44 7.3 WNW 44 69 24 37 - - 0.0
18/03:00pm 24.6 18.4 11.5 44 7.4 NW 35 54 19 29 - - 0.0
18/02:30pm 25.2 18.2 11.4 42 7.8 NW 39 61 21 33 - - 0.0
18/02:22pm 25.6 18.9 11.0 40 8.2 NW 37 61 20 33 - - 0.0
18/02:00pm 26.1 19.3 10.7 38 8.7 NW 37 50 20 27 - - 0.0
18/01:30pm 26.0 21.7 10.6 38 8.6 NW 24 37 13 20 - - 0.0
18/01:00pm 21.5 20.0 14.2 63 4.3 ENE 15 20 8 11 - - 0.0
18/12:30pm 21.8 21.1 14.2 62 4.4 ENE 11 17 6 9 - - 0.0
18/12:00pm 22.3 22.2 13.9 59 4.9 ENE 7 13 4 7 - - 0.0
18/11:30am 22.2 20.1 11.3 50 6.1 NNE 13 19 7 10 - - 0.0
18/11:00am 21.8 20.5 12.6 56 5.2 N 11 15 6 8 - - 0.0
18/10:30am 20.6 19.4 12.8 61 4.4 N 11 13 6 7 - - 0.0
18/10:00am 20.3 18.0 11.8 58 4.7 N 15 19 8 10 - - 0.0
18/09:30am 19.5 17.4 12.5 64 3.9 N 15 19 8 10 - - 0.0
18/09:00am 18.5 15.5 12.0 66 3.6 N 19 22 10 12 - - 0.2
18/08:30am 17.7 15.6 12.4 71 2.9 N 15 17 8 9 - - 0.2
18/08:00am 17.1 14.9 12.2 73 2.7 NW 15 22 8 12 - - 0.2
18/07:30am 15.8 14.4 12.2 79 2.0 NNW 11 13 6 7 - - 0.2
18/07:00am 15.6 14.1 12.0 79 2.0 NNW 11 13 6 7 - - 0.2
18/06:30am 15.2 13.8 12.2 82 1.6 N 11 13 6 7 - - 0.2
18/06:00am 15.5 13.5 12.8 84 1.5 N 15 17 8 9 - - 0.2
18/05:30am 15.3 13.0 11.9 80 1.8 N 15 19 8 10 - - 0.2
18/05:00am 15.1 13.2 11.9 81 1.7 NNW 13 20 7 11 - - 0.2
18/04:30am 15.3 13.5 12.2 82 1.7 NW 13 19 7 10 - - 0.2
18/04:00am 15.1 14.4 12.1 82 1.6 NW 7 13 4 7 - - 0.2
18/03:30am 14.9 13.1 12.2 84 1.5 NNW 13 17 7 9 - - 0.2
18/03:00am 15.0 12.8 12.0 82 1.6 NNW 15 19 8 10 - - 0.2
18/02:30am 15.3 14.2 11.9 80 1.8 NW 9 13 5 7 - - 0.2
18/02:00am 15.5 13.7 12.1 80 1.9 N 13 19 7 10 - - 0.2
18/01:30am 15.1 13.2 11.9 81 1.7 N 13 17 7 9 - - 0.2
18/01:00am 15.4 13.2 12.0 80 1.8 NNW 15 19 8 10 - - 0.2
18/12:30am 15.3 13.0 11.9 80 1.8 N 15 19 8 10 - - 0.2
18/12:00am 15.3 13.4 11.7 79 1.9 N 13 17 7 9 - - 0.2
 
Date/Time
EST
Temp
°C
App
Temp
°C
Dew
Point
°C
Rel
Hum
%
Delta-T
°C
Wind Press
QNH
hPa
Press
MSL
hPa
Rain since
9am
mm
Dir  Spd
km/h
Gust
km/h
Spd
kts
Gust
kts
17/11:30pm 15.4 13.4 11.6 78 2.1 NNW 13 19 7 10 - - 0.2
17/11:00pm 15.5 12.3 11.9 79 2.0 N 20 24 11 13 - - 0.2
17/10:30pm 15.6 12.3 11.6 77 2.2 N 20 28 11 15 - - 0.2
17/10:00pm 15.7 12.6 12.1 79 2.0 N 20 24 11 13 - - 0.2
17/09:30pm 15.9 12.8 12.1 78 2.1 NNE 20 24 11 13 - - 0.2
17/09:00pm 15.9 12.3 11.9 77 2.2 NNE 22 30 12 16 - - 0.2
17/08:30pm 16.1 11.4 12.1 77 2.2 NNE 28 33 15 18 - - 0.2
17/08:00pm 16.2 12.6 11.8 75 2.4 NNE 22 32 12 17 - - 0.2
17/07:30pm 16.6 13.6 12.4 76 2.3 NE 20 33 11 18 - - 0.2
17/07:00pm 16.8 13.7 12.1 74 2.6 NE 20 30 11 16 - - 0.2
17/06:30pm 17.0 13.5 12.3 74 2.6 NE 22 30 12 16 - - 0.2
17/06:00pm 17.1 12.5 12.4 74 2.6 NE 28 37 15 20 - - 0.2
17/05:30pm 17.4 13.6 12.3 72 2.8 NE 24 35 13 19 - - 0.2
17/05:00pm 17.6 13.2 12.9 74 2.6 ENE 28 37 15 20 - - 0.2
17/04:30pm 17.7 13.3 12.8 73 2.7 ENE 28 35 15 19 - - 0.2
17/04:00pm 17.8 12.7 13.1 74 2.6 ENE 32 37 17 20 - - 0.2
17/03:30pm 17.7 12.8 12.4 71 2.9 ENE 30 37 16 20 - - 0.2
17/03:00pm 17.8 12.5 12.5 71 2.9 ENE 32 39 17 21 - - 0.2
17/02:30pm 17.7 12.2 11.7 68 3.3 ENE 32 39 17 21 - - 0.2
17/02:00pm 17.8 12.5 11.1 65 3.6 ENE 30 37 16 20 - - 0.2
17/01:30pm 17.9 13.1 11.5 66 3.5 ENE 28 35 15 19 - - 0.2
17/01:00pm 18.2 14.0 12.4 69 3.2 ENE 26 32 14 17 - - 0.2
17/12:30pm 18.3 14.6 11.4 64 3.8 E 22 26 12 14 - - 0.2
17/12:00pm 18.3 15.5 11.4 64 3.8 E 17 20 9 11 - - 0.2
17/11:30am 17.9 16.1 12.1 69 3.2 E 13 19 7 10 - - 0.2
17/11:00am 17.8 17.2 12.3 70 3.0 ESE 7 9 4 5 - - 0.2
17/10:30am 16.6 15.7 11.5 72 2.8 ESE 7 9 4 5 - - 0.2
17/10:00am 16.9 16.5 12.4 75 2.5 N 6 7 3 4 - - 0.0
17/09:30am 15.1 14.0 10.5 74 2.4 NNW 7 9 4 5 - - 0.0
17/09:00am 14.1 12.7 9.7 75 2.3 NNW 7 11 4 6 - - 0.8
17/08:30am 13.2 12.1 10.6 84 1.4 NNW 7 9 4 5 - - 0.8
17/08:00am 12.0 10.7 9.9 87 1.1 NW 7 9 4 5 - - 0.8
17/07:30am 11.4 10.1 10.1 92 0.7 NW 7 9 4 5 - - 0.8
17/07:00am 10.4 9.0 9.6 95 0.4 NW 7 7 4 4 - - 0.8
17/06:30am 9.6 8.0 8.8 95 0.4 WNW 7 9 4 5 - - 0.8
17/06:00am 9.4 7.4 8.8 96 0.3 WNW 9 11 5 6 - - 0.8
17/05:30am 9.7 8.2 9.1 96 0.3 NW 7 9 4 5 - - 0.8
17/05:00am 9.4 7.4 8.6 95 0.4 WNW 9 11 5 6 - - 0.8
17/04:30am 9.4 7.8 8.6 95 0.4 WNW 7 9 4 5 - - 0.8
17/04:00am 10.0 8.5 9.2 95 0.4 WNW 7 9 4 5 - - 0.8
17/03:30am 10.7 9.4 9.8 94 0.5 NNW 7 9 4 5 - - 0.8
17/03:00am 10.7 9.4 9.8 94 0.5 WNW 7 9 4 5 - - 0.8
17/02:30am 11.2 10.1 10.1 93 0.6 NW 6 7 3 4 - - 0.8
17/02:00am 11.3 10.6 10.2 93 0.6 W 4 4 2 2 - - 0.8
17/01:30am 11.3 10.2 10.0 92 0.7 WNW 6 7 3 4 - - 0.8
17/01:00am 11.6 10.3 10.0 90 0.8 NW 7 9 4 5 - - 0.8
17/12:30am 11.7 10.6 9.9 89 0.9 WNW 6 7 3 4 - - 0.8
17/12:00am 11.7 10.4 9.9 89 0.9 WNW 7 9 4 5 - - 0.8
 
Date/Time
EST
Temp
°C
App
Temp
°C
Dew
Point
°C
Rel
Hum
%
Delta-T
°C
Wind Press
QNH
hPa
Press
MSL
hPa
Rain since
9am
mm
Dir  Spd
km/h
Gust
km/h
Spd
kts
Gust
kts
16/11:30pm 11.7 10.4 9.9 89 0.9 WNW 7 11 4 6 - - 0.8
16/11:00pm 11.7 10.0 9.9 89 0.9 NW 9 11 5 6 - - 0.8
16/10:30pm 12.2 10.9 10.1 87 1.1 W 7 9 4 5 - - 0.8
16/10:00pm 12.5 10.9 10.2 86 1.2 W 9 11 5 6 - - 0.8
16/09:30pm 13.3 11.5 10.7 84 1.4 W 11 13 6 7 - - 0.8
16/09:00pm 14.8 13.3 8.5 66 3.2 E 6 9 3 5 - - 0.8
16/08:30pm 15.0 12.2 8.5 65 3.3 E 13 17 7 9 - - 0.8
16/08:00pm 14.9 12.2 8.8 67 3.1 ESE 13 17 7 9 - - 0.8
16/07:30pm 14.8 12.0 8.7 67 3.1 ESE 13 15 7 8 - - 0.8
16/07:00pm 14.7 12.5 9.3 70 2.8 SE 11 15 6 8 - - 0.8
16/06:30pm 14.5 11.9 9.5 72 2.6 SE 13 17 7 9 - - 0.8
16/06:00pm 14.5 11.8 9.1 70 2.8 SE 13 17 7 9 - - 0.8
16/05:30pm 14.9 12.2 9.1 68 3.0 SE 13 17 7 9 - - 0.8
16/05:00pm 15.2 12.7 9.8 70 2.8 SSE 13 15 7 8 - - 0.8
16/04:30pm 15.4 14.0 11.0 75 2.3 SSE 9 13 5 7 - - 0.8
16/04:00pm 15.2 13.2 10.2 72 2.6 SSE 11 13 6 7 - - 0.8
16/03:30pm 15.2 12.8 10.0 71 2.7 SSE 13 17 7 9 - - 0.8
16/03:00pm 15.5 13.4 9.8 69 3.0 SSE 11 15 6 8 - - 0.8
16/02:30pm 15.3 14.3 10.9 75 2.3 SSE 7 9 4 5 - - 0.8
16/02:00pm 14.4 12.5 10.4 77 2.1 SSE 11 15 6 8 - - 0.8
16/01:30pm 13.8 11.2 10.8 82 1.6 SSE 15 19 8 10 - - 0.8
16/01:00pm 14.4 10.3 11.6 83 1.5 S 24 28 13 15 - - 0.6
16/12:30pm 14.4 10.6 9.8 74 2.4 S 20 24 11 13 - - 0.6
16/12:00pm 15.7 12.4 11.7 77 2.2 S 20 22 11 12 - - 0.6
16/11:30am 15.0 12.6 11.4 79 1.9 S 15 19 8 10 - - 0.6
16/11:00am 13.6 11.9 11.1 85 1.3 SSW 11 15 6 8 - - 0.6
16/10:30am 12.6 9.8 11.2 91 0.7 S 17 22 9 12 - - 0.4
16/10:00am 14.0 10.8 11.3 84 1.4 SSW 19 32 10 17 - - 0.0
16/09:30am 14.1 10.8 10.9 81 1.7 SSW 19 24 10 13 - - 0.0
16/09:00am 14.3 12.5 10.9 80 1.8 SW 11 20 6 11 - - 2.2
16/08:30am 12.4 10.1 10.3 87 1.1 WSW 13 20 7 11 - - 2.2
16/08:00am 11.4 8.8 9.3 87 1.1 SW 13 22 7 12 - - 2.2
16/07:30am 11.1 8.1 9.4 89 0.9 W 15 17 8 9 - - 2.2
16/07:00am 11.3 8.1 8.5 83 1.4 WSW 15 20 8 11 - - 1.6
16/06:30am 11.5 8.8 8.9 84 1.3 WSW 13 19 7 10 - - 1.6
16/06:00am 11.5 8.3 8.5 82 1.5 SW 15 22 8 12 - - 1.6
16/05:30am 11.6 8.8 8.6 82 1.5 SW 13 22 7 12 - - 1.6
16/05:00am 11.6 8.8 8.6 82 1.5 SW 13 20 7 11 - - 1.6
16/04:30am 11.7 8.6 8.9 83 1.4 SW 15 24 8 13 - - 1.6
16/04:00am 11.7 9.4 8.9 83 1.4 WSW 11 20 6 11 - - 1.6
16/03:30am 11.6 9.3 9.0 84 1.3 SW 11 17 6 9 - - 1.6
16/03:00am 11.3 9.1 9.4 88 1.0 WSW 11 19 6 10 - - 1.6
16/02:30am 11.7 9.0 10.3 91 0.7 WSW 15 24 8 13 - - 1.6
16/02:00am 12.0 9.4 10.7 92 0.7 WSW 15 20 8 11 - - 1.4
16/01:30am 12.2 8.6 10.4 89 0.9 SW 20 32 11 17 - - 0.8
16/01:00am 12.8 11.4 10.9 88 1.0 WSW 9 19 5 10 - - 0.6
16/12:30am 13.8 10.2 10.6 81 1.7 S 20 37 11 20 - - 0.6
16/12:14am 13.8 9.0 11.5 86 1.2 S 28 46 15 25 - - 0.6
16/12:00am 14.4 10.6 11.2 81 1.7 S 22 39 12 21 - - 0.6
 
Date/Time
EST
Temp
°C
App
Temp
°C
Dew
Point
°C
Rel
Hum
%
Delta-T
°C
Wind Press
QNH
hPa
Press
MSL
hPa
Rain since
9am
mm
Dir  Spd
km/h
Gust
km/h
Spd
kts
Gust
kts
15/11:30pm 14.1 9.6 9.9 76 2.2 SSW 24 37 13 20 - - 0.6
15/11:00pm 14.8 8.4 10.6 76 2.2 S 35 44 19 24 - - 0.6
15/10:41pm 14.4 8.2 11.4 82 1.6 S 35 48 19 26 - - 0.6
15/10:30pm 14.5 10.8 11.5 82 1.6 SSW 22 35 12 19 - - 0.6
15/10:00pm 15.2 9.1 9.8 70 2.8 S 32 39 17 21 - - 0.6
15/09:30pm 15.2 8.6 10.0 71 2.7 S 35 41 19 22 - - 0.6
15/09:00pm 15.4 9.1 9.7 69 3.0 S 33 43 18 23 - - 0.6
15/08:30pm 15.5 8.8 9.6 68 3.1 S 35 43 19 23 - - 0.6
15/08:00pm 15.0 8.5 10.2 73 2.5 S 35 46 19 25 - - 0.6
15/07:30pm 14.9 8.5 10.7 76 2.2 S 35 43 19 23 - - 0.6
15/07:00pm 14.0 7.3 9.8 76 2.2 S 35 46 19 25 - - 0.6
15/06:55pm 14.2 8.4 10.8 80 1.8 S 32 41 17 22 - - 0.6
15/06:30pm 13.2 5.8 11.1 87 1.1 SSE 41 48 22 26 - - 0.4
15/06:20pm 13.5 6.2 10.3 81 1.7 S 39 50 21 27 - - 0.4
15/06:00pm 13.7 8.0 11.2 85 1.3 SSW 32 46 17 25 - - 0.4

Other formats

Comma delimited format used in spreadsheet applications
http://www.bom.gov.au/fwo/IDN60801/IDN60801.94774.axf

JavaScript Object Notation format (JSON) in row-major order
http://www.bom.gov.au/fwo/IDN60801/IDN60801.94774.json

Data quality

Most of these data are generated automatically and are frequently updated. Quality checks on data are not normally performed. It is possible for incorrect values to appear. Refer to information at About Latest Weather Observations and please check the disclaimer before using these data.